Time;durP1;ratioP1;P1;durP2;ratioP2;P2;SDS_P1;SDS_P2;PMS_P1;PMS_P2;Temp;Humidity;BMP_temperature;BMP_pressure;BME280_temperature;BME280_humidity;BME280_pressure;Samples;Min_cycle;Max_cycle;Signal;HPM_P1;HPM_P2
2023/03/14 00:00:40;;;;;;;4.20;2.58;;;;;;;;;;4188892;28;20048;-59
2023/03/14 00:03:00;;;;;;;3.47;3.10;;;;;;;;;;4189503;28;20056;-58
2023/03/14 00:05:20;;;;;;;5.50;3.33;;;;;;;;;;4190373;28;20055;-59
2023/03/14 00:07:41;;;;;;;4.93;3.33;;;;;;;;;;4190054;28;20362;-58
2023/03/14 00:10:04;;;;;;;3.08;2.20;;;;;;;;;;4191168;28;20043;-58
2023/03/14 00:12:24;;;;;;;4.20;3.80;;;;;;;;;;4190402;28;20431;-58
2023/03/14 00:14:44;;;;;;;8.85;4.13;;;;;;;;;;4190398;28;20087;-58
2023/03/14 00:17:04;;;;;;;5.38;3.08;;;;;;;;;;4189526;28;20055;-58
2023/03/14 00:19:24;;;;;;;6.75;3.33;;;;;;;;;;4190826;28;20059;-58
2023/03/14 00:21:44;;;;;;;5.15;4.18;;;;;;;;;;4192204;28;20043;-58
2023/03/14 00:24:05;;;;;;;3.78;3.55;;;;;;;;;;4188481;28;20055;-58
2023/03/14 00:26:26;;;;;;;5.80;2.95;;;;;;;;;;4189841;28;20228;-58
2023/03/14 00:28:47;;;;;;;6.75;3.63;;;;;;;;;;4192917;28;20240;-58
2023/03/14 00:31:07;;;;;;;5.65;3.72;;;;;;;;;;4189276;28;20052;-59
2023/03/14 00:33:28;;;;;;;9.07;3.60;;;;;;;;;;4188186;28;20232;-59
2023/03/14 00:35:55;;;;;;;7.68;4.32;;;;;;;;;;4189831;28;20048;-58
2023/03/14 00:38:15;;;;;;;5.40;2.53;;;;;;;;;;4193223;28;20087;-58
2023/03/14 00:40:39;;;;;;;4.00;3.60;;;;;;;;;;4193258;28;20051;-58
2023/03/14 00:42:59;;;;;;;4.07;3.63;;;;;;;;;;4192974;28;20045;-59
2023/03/14 00:45:19;;;;;;;4.97;3.25;;;;;;;;;;4194315;28;20060;-58
2023/03/14 00:47:40;;;;;;;6.28;4.35;;;;;;;;;;4193746;28;20143;-58
2023/03/14 00:50:01;;;;;;;5.03;3.42;;;;;;;;;;4194688;28;20052;-58
2023/03/14 00:52:21;;;;;;;9.55;3.72;;;;;;;;;;4192983;28;20071;-58
2023/03/14 00:54:41;;;;;;;3.63;3.40;;;;;;;;;;4192818;28;20040;-58
2023/03/14 00:57:01;;;;;;;3.78;3.00;;;;;;;;;;4195841;28;20047;-58
2023/03/14 00:59:22;;;;;;;4.85;3.03;;;;;;;;;;4191822;28;20067;-58
2023/03/14 01:01:42;;;;;;;6.10;3.17;;;;;;;;;;4192859;28;20275;-58
2023/03/14 01:04:02;;;;;;;4.20;3.42;;;;;;;;;;4194799;28;20048;-58
2023/03/14 01:06:26;;;;;;;3.60;3.30;;;;;;;;;;4197103;28;20051;-58
2023/03/14 01:08:47;;;;;;;4.35;3.47;;;;;;;;;;4192454;28;20146;-58
2023/03/14 01:11:08;;;;;;;6.55;3.10;;;;;;;;;;4193375;28;20087;-58
2023/03/14 01:13:28;;;;;;;8.07;3.85;;;;;;;;;;4195584;28;20055;-58
2023/03/14 01:15:49;;;;;;;4.20;2.78;;;;;;;;;;4191491;28;20286;-58
2023/03/14 01:18:09;;;;;;;4.28;3.13;;;;;;;;;;4191503;28;20047;-58
2023/03/14 01:20:29;;;;;;;3.75;3.45;;;;;;;;;;4192397;28;20048;-58
2023/03/14 01:22:49;;;;;;;4.13;3.28;;;;;;;;;;4192054;28;20095;-58
2023/03/14 01:25:12;;;;;;;5.40;3.78;;;;;;;;;;4191914;28;20263;-58
2023/03/14 01:27:33;;;;;;;3.55;2.63;;;;;;;;;;4192791;28;20052;-58
2023/03/14 01:29:53;;;;;;;4.50;3.22;;;;;;;;;;4193249;28;20082;-58
2023/03/14 01:32:13;;;;;;;7.45;3.67;;;;;;;;;;4192254;28;20105;-58
2023/03/14 01:34:34;;;;;;;3.63;2.85;;;;;;;;;;4192596;28;20047;-58
2023/03/14 01:36:54;;;;;;;3.10;2.90;;;;;;;;;;4192140;28;20098;-58
2023/03/14 01:39:14;;;;;;;6.32;3.97;;;;;;;;;;4193034;28;20056;-58
2023/03/14 01:41:35;;;;;;;3.28;2.88;;;;;;;;;;4192945;28;20090;-58
2023/03/14 01:43:55;;;;;;;3.95;3.08;;;;;;;;;;4193276;28;20095;-58
2023/03/14 01:46:21;;;;;;;6.30;3.28;;;;;;;;;;4191402;28;20183;-58
2023/03/14 01:49:01;;;;;;;3.60;3.40;;;;;;;;;;4192518;28;20113;-58
2023/03/14 01:51:34;;;;;;;4.10;3.28;;;;;;;;;;4190363;28;20366;-58
2023/03/14 01:53:58;;;;;;;4.05;3.58;;;;;;;;;;4191966;28;20060;-58
2023/03/14 01:56:19;;;;;;;7.50;3.30;;;;;;;;;;4192212;28;20224;-58
2023/03/14 01:58:41;;;;;;;5.53;3.30;;;;;;;;;;4194444;28;20047;-58
2023/03/14 02:01:02;;;;;;;7.40;3.40;;;;;;;;;;4192191;28;20063;-59
2023/03/14 02:03:23;;;;;;;5.20;3.63;;;;;;;;;;4204682;22;20075;-58
2023/03/14 02:05:44;;;;;;;4.97;2.83;;;;;;;;;;4190892;28;20062;-58
2023/03/14 02:08:06;;;;;;;3.83;3.13;;;;;;;;;;4190609;28;20052;-58
2023/03/14 02:10:29;;;;;;;3.95;3.78;;;;;;;;;;4190944;28;20051;-58
2023/03/14 02:12:49;;;;;;;4.53;4.13;;;;;;;;;;4190189;28;20084;-58
2023/03/14 02:15:10;;;;;;;5.85;3.67;;;;;;;;;;4190884;28;20060;-58
2023/03/14 02:17:30;;;;;;;3.95;3.60;;;;;;;;;;4190692;28;20064;-58
2023/03/14 02:20:05;;;;;;;5.05;3.70;;;;;;;;;;4189745;28;20106;-58
2023/03/14 02:22:24;;;;;;;;;;;;;;;;;;4190873;28;20233;-58
2023/03/14 02:25:06;;;;;;;6.28;3.70;;;;;;;;;;4190753;28;20115;-58
2023/03/14 02:27:27;;;;;;;5.65;3.58;;;;;;;;;;4189916;28;20236;-58
2023/03/14 02:29:57;;;;;;;4.22;2.92;;;;;;;;;;4189825;28;20291;-58
2023/03/14 02:32:17;;;;;;;5.38;3.35;;;;;;;;;;4190578;28;20117;-58
2023/03/14 02:34:37;;;;;;;3.55;3.25;;;;;;;;;;4190565;28;20102;-58
2023/03/14 02:36:58;;;;;;;3.95;3.15;;;;;;;;;;4190639;28;20113;-58
2023/03/14 02:39:22;;;;;;;6.38;3.85;;;;;;;;;;4190441;28;20040;-58
2023/03/14 02:41:44;;;;;;;7.40;3.50;;;;;;;;;;4190320;28;20095;-58
2023/03/14 02:44:05;;;;;;;4.07;3.35;;;;;;;;;;4189260;28;20080;-58
2023/03/14 02:46:25;;;;;;;3.72;3.42;;;;;;;;;;4190424;28;20259;-58
2023/03/14 02:48:45;;;;;;;2.88;2.72;;;;;;;;;;4190479;28;20274;-58
2023/03/14 02:51:05;;;;;;;5.03;3.08;;;;;;;;;;4190214;28;20174;-58
2023/03/14 02:53:28;;;;;;;8.52;3.72;;;;;;;;;;4190096;28;20228;-58
2023/03/14 02:55:49;;;;;;;4.03;3.22;;;;;;;;;;4190266;28;20044;-58
2023/03/14 02:58:09;;;;;;;4.78;3.55;;;;;;;;;;4190068;28;20052;-58
2023/03/14 03:00:30;;;;;;;6.47;4.53;;;;;;;;;;4189509;28;20388;-58
2023/03/14 03:02:50;;;;;;;5.88;2.53;;;;;;;;;;4189931;28;20431;-58
2023/03/14 03:05:11;;;;;;;4.53;4.05;;;;;;;;;;4189915;28;20060;-58
2023/03/14 03:07:31;;;;;;;4.72;3.35;;;;;;;;;;4189196;28;20047;-58
2023/03/14 03:09:51;;;;;;;6.57;3.67;;;;;;;;;;4189271;28;20381;-58
2023/03/14 03:12:11;;;;;;;4.53;4.07;;;;;;;;;;4189885;28;20052;-58
2023/03/14 03:14:31;;;;;;;2.95;2.85;;;;;;;;;;4188727;28;20083;-58
2023/03/14 03:16:52;;;;;;;9.70;3.60;;;;;;;;;;4189826;28;20086;-58
2023/03/14 03:19:13;;;;;;;2.85;2.28;;;;;;;;;;4189948;28;20044;-58
2023/03/14 03:21:34;;;;;;;4.13;3.05;;;;;;;;;;4188774;28;20116;-58
2023/03/14 03:23:54;;;;;;;6.30;2.85;;;;;;;;;;4188211;28;20056;-58
2023/03/14 03:26:15;;;;;;;4.20;2.92;;;;;;;;;;4189697;28;20402;-58
2023/03/14 03:28:35;;;;;;;6.38;3.50;;;;;;;;;;4189414;28;20099;-58
2023/03/14 03:30:55;;;;;;;3.45;3.13;;;;;;;;;;4189899;28;20083;-58
2023/03/14 03:33:15;;;;;;;2.90;2.60;;;;;;;;;;4189727;28;20048;-58
2023/03/14 03:35:35;;;;;;;5.00;2.63;;;;;;;;;;4189771;28;20052;-58
2023/03/14 03:37:56;;;;;;;3.15;2.97;;;;;;;;;;4189512;28;20231;-58
2023/03/14 03:40:16;;;;;;;3.65;3.42;;;;;;;;;;4189839;28;20048;-58
2023/03/14 03:42:36;;;;;;;4.97;3.47;;;;;;;;;;4189706;28;20052;-58
2023/03/14 03:44:57;;;;;;;3.83;3.58;;;;;;;;;;4189646;28;20051;-58
2023/03/14 03:47:17;;;;;;;8.40;3.50;;;;;;;;;;4189602;28;20043;-57
2023/03/14 03:49:37;;;;;;;6.03;3.05;;;;;;;;;;4189082;28;20109;-58
2023/03/14 03:51:57;;;;;;;5.43;3.30;;;;;;;;;;4189026;28;20362;-58
2023/03/14 03:54:17;;;;;;;4.03;3.53;;;;;;;;;;4189340;28;20044;-58
2023/03/14 03:56:37;;;;;;;6.68;3.10;;;;;;;;;;4189594;28;20111;-58
2023/03/14 03:58:57;;;;;;;4.95;3.03;;;;;;;;;;4189022;28;20246;-58
2023/03/14 04:01:17;;;;;;;4.80;3.00;;;;;;;;;;4188833;28;20366;-58
2023/03/14 04:03:38;;;;;;;4.63;3.47;;;;;;;;;;4189422;28;20051;-59
2023/03/14 04:06:06;;;;;;;4.43;3.05;;;;;;;;;;4188556;28;20040;-58
2023/03/14 04:08:27;;;;;;;3.95;3.65;;;;;;;;;;4189350;28;20076;-58
2023/03/14 04:10:47;;;;;;;3.20;2.53;;;;;;;;;;4190493;28;20108;-58
2023/03/14 04:13:07;;;;;;;3.47;3.13;;;;;;;;;;4188488;28;20059;-58
2023/03/14 04:15:27;;;;;;;3.40;3.10;;;;;;;;;;4189075;28;20051;-58
2023/03/14 04:17:48;;;;;;;3.95;2.95;;;;;;;;;;4189035;28;20079;-58
2023/03/14 04:20:10;;;;;;;4.47;2.63;;;;;;;;;;4189334;28;20041;-59
2023/03/14 04:22:30;;;;;;;5.68;2.90;;;;;;;;;;4189205;28;20091;-58
2023/03/14 04:24:51;;;;;;;5.57;2.90;;;;;;;;;;4189077;28;20048;-58
2023/03/14 04:27:11;;;;;;;4.38;2.90;;;;;;;;;;4189313;28;20048;-58
2023/03/14 04:29:31;;;;;;;3.08;2.83;;;;;;;;;;4189002;28;20051;-58
2023/03/14 04:31:51;;;;;;;3.92;2.65;;;;;;;;;;4190544;28;20052;-58
2023/03/14 04:34:12;;;;;;;5.07;4.78;;;;;;;;;;4189152;28;20036;-58
2023/03/14 04:36:32;;;;;;;6.35;3.75;;;;;;;;;;4188969;28;20087;-58
2023/03/14 04:38:52;;;;;;;6.50;3.13;;;;;;;;;;4188548;28;20052;-58
2023/03/14 04:41:12;;;;;;;4.45;3.10;;;;;;;;;;4189291;28;20052;-58
2023/03/14 04:43:33;;;;;;;9.63;2.85;;;;;;;;;;4188346;28;20139;-58
2023/03/14 04:45:57;;;;;;;2.78;2.58;;;;;;;;;;4189030;28;20236;-58
2023/03/14 04:48:17;;;;;;;3.55;2.90;;;;;;;;;;4188774;28;20248;-58
2023/03/14 04:50:37;;;;;;;3.15;2.92;;;;;;;;;;4189027;28;20068;-58
2023/03/14 04:52:58;;;;;;;3.80;2.63;;;;;;;;;;4189033;28;20056;-58
2023/03/14 04:55:18;;;;;;;9.18;3.72;;;;;;;;;;4188519;28;20371;-58
2023/03/14 04:57:38;;;;;;;4.40;3.92;;;;;;;;;;4188519;28;20083;-58
2023/03/14 04:59:58;;;;;;;5.65;3.25;;;;;;;;;;4188923;28;20370;-57
2023/03/14 05:02:19;;;;;;;2.97;2.78;;;;;;;;;;4188542;28;20367;-58
2023/03/14 05:04:39;;;;;;;3.78;3.47;;;;;;;;;;4188550;28;20393;-59
2023/03/14 05:06:59;;;;;;;5.38;3.58;;;;;;;;;;4188865;28;20105;-58
2023/03/14 05:09:19;;;;;;;3.70;3.50;;;;;;;;;;4188788;28;20090;-59
2023/03/14 05:11:39;;;;;;;2.78;2.35;;;;;;;;;;4188556;28;20048;-58
2023/03/14 05:13:59;;;;;;;3.17;2.35;;;;;;;;;;4188805;28;20058;-58
2023/03/14 05:16:19;;;;;;;5.00;3.72;;;;;;;;;;4188394;28;20067;-58
2023/03/14 05:18:39;;;;;;;2.70;2.28;;;;;;;;;;4188468;28;20074;-59
2023/03/14 05:21:00;;;;;;;3.45;2.85;;;;;;;;;;4188135;28;20256;-58
2023/03/14 05:23:20;;;;;;;3.50;3.20;;;;;;;;;;4188107;28;20370;-58
2023/03/14 05:25:40;;;;;;;4.00;2.85;;;;;;;;;;4191465;28;20108;-58
2023/03/14 05:28:00;;;;;;;5.40;2.60;;;;;;;;;;4190673;28;20051;-58
2023/03/14 05:30:21;;;;;;;4.32;3.65;;;;;;;;;;4190470;28;20048;-58
2023/03/14 05:32:41;;;;;;;6.07;3.67;;;;;;;;;;4190006;28;20055;-58
2023/03/14 05:35:01;;;;;;;5.78;4.00;;;;;;;;;;4191240;28;20228;-58
2023/03/14 05:37:21;;;;;;;6.80;3.42;;;;;;;;;;4191208;28;20051;-58
2023/03/14 05:39:42;;;;;;;3.25;3.05;;;;;;;;;;4190009;28;20052;-58
2023/03/14 05:42:02;;;;;;;3.92;3.72;;;;;;;;;;4191276;28;20059;-58
2023/03/14 05:44:22;;;;;;;2.97;2.88;;;;;;;;;;4191359;28;20052;-58
2023/03/14 05:46:42;;;;;;;5.13;3.25;;;;;;;;;;4190492;28;20047;-58
2023/03/14 05:49:02;;;;;;;3.47;2.50;;;;;;;;;;4190091;28;20096;-58
2023/03/14 05:51:22;;;;;;;2.67;2.47;;;;;;;;;;4190973;28;20051;-58
2023/03/14 05:53:43;;;;;;;3.83;3.33;;;;;;;;;;4198859;28;20116;-58
2023/03/14 05:56:03;;;;;;;4.38;2.75;;;;;;;;;;4190137;28;20389;-58
2023/03/14 05:58:23;;;;;;;4.50;2.78;;;;;;;;;;4188930;28;20100;-58
2023/03/14 06:00:44;;;;;;;3.28;3.10;;;;;;;;;;4191172;28;20274;-58
2023/03/14 06:03:04;;;;;;;3.08;2.78;;;;;;;;;;4190543;28;20108;-58
2023/03/14 06:05:27;;;;;;;3.40;3.17;;;;;;;;;;4189865;28;20083;-58
2023/03/14 06:07:47;;;;;;;3.80;3.33;;;;;;;;;;4188966;28;20071;-58
2023/03/14 06:10:08;;;;;;;4.53;3.17;;;;;;;;;;4190585;28;20287;-58
2023/03/14 06:12:28;;;;;;;3.47;3.10;;;;;;;;;;4190838;28;20055;-58
2023/03/14 06:14:48;;;;;;;2.15;1.98;;;;;;;;;;4190913;28;20239;-59
2023/03/14 06:17:09;;;;;;;2.92;2.67;;;;;;;;;;4190786;28;20047;-58
2023/03/14 06:19:29;;;;;;;3.95;2.42;;;;;;;;;;4190137;28;20075;-58
2023/03/14 06:21:49;;;;;;;6.95;3.72;;;;;;;;;;4190035;28;20083;-56
2023/03/14 06:24:09;;;;;;;5.55;2.72;;;;;;;;;;4190684;28;20353;-57
2023/03/14 06:26:29;;;;;;;3.10;2.83;;;;;;;;;;4190713;28;20067;-56
2023/03/14 06:28:50;;;;;;;5.38;3.67;;;;;;;;;;4190466;28;20093;-57
2023/03/14 06:31:11;;;;;;;3.60;3.30;;;;;;;;;;4189469;28;20075;-57
2023/03/14 06:33:31;;;;;;;4.53;3.55;;;;;;;;;;4190238;28;20224;-57
2023/03/14 06:35:52;;;;;;;3.80;2.72;;;;;;;;;;4188489;28;20283;-57
2023/03/14 06:38:12;;;;;;;3.63;3.42;;;;;;;;;;4190083;28;20067;-57
2023/03/14 06:40:32;;;;;;;3.35;3.05;;;;;;;;;;4190497;28;20095;-56
2023/03/14 06:42:52;;;;;;;6.20;3.58;;;;;;;;;;4189763;28;20095;-56
2023/03/14 06:45:13;;;;;;;2.53;2.40;;;;;;;;;;4190530;28;20079;-57
2023/03/14 06:47:33;;;;;;;3.67;3.50;;;;;;;;;;4189583;28;20052;-56
2023/03/14 06:49:53;;;;;;;2.85;2.70;;;;;;;;;;4190227;28;20035;-56
2023/03/14 06:52:14;;;;;;;3.53;3.22;;;;;;;;;;4189149;28;20074;-56
2023/03/14 06:54:34;;;;;;;3.88;3.55;;;;;;;;;;4190203;28;20139;-56
2023/03/14 06:56:54;;;;;;;7.70;3.33;;;;;;;;;;4190243;28;20099;-57
2023/03/14 06:59:15;;;;;;;2.80;2.53;;;;;;;;;;4189362;28;20086;-56
2023/03/14 07:01:35;;;;;;;3.65;3.33;;;;;;;;;;4190241;28;20240;-56
2023/03/14 07:03:56;;;;;;;3.42;3.22;;;;;;;;;;4190144;28;20167;-56
2023/03/14 07:06:16;;;;;;;3.10;2.90;;;;;;;;;;4188792;28;20086;-56
2023/03/14 07:08:37;;;;;;;3.45;3.17;;;;;;;;;;4189898;28;20048;-56
2023/03/14 07:10:58;;;;;;;5.32;3.03;;;;;;;;;;4188593;28;20051;-56
2023/03/14 07:13:18;;;;;;;2.40;2.30;;;;;;;;;;4190076;28;20108;-56
2023/03/14 07:15:38;;;;;;;4.15;3.67;;;;;;;;;;4190042;28;20044;-56
2023/03/14 07:17:58;;;;;;;3.53;2.88;;;;;;;;;;4189582;28;20059;-56
2023/03/14 07:20:18;;;;;;;3.25;3.03;;;;;;;;;;4190246;28;20039;-56
2023/03/14 07:22:39;;;;;;;5.97;3.80;;;;;;;;;;4190012;28;20326;-57
2023/03/14 07:24:59;;;;;;;3.67;3.40;;;;;;;;;;4188986;28;20420;-57
2023/03/14 07:27:19;;;;;;;3.08;2.70;;;;;;;;;;4188656;28;20358;-57
2023/03/14 07:29:39;;;;;;;3.72;3.22;;;;;;;;;;4189927;28;20386;-57
2023/03/14 07:31:59;;;;;;;4.68;4.22;;;;;;;;;;4189915;28;20087;-57
2023/03/14 07:34:19;;;;;;;4.97;4.63;;;;;;;;;;4189797;28;20055;-56
2023/03/14 07:36:40;;;;;;;6.30;4.85;;;;;;;;;;4189764;28;20052;-56
2023/03/14 07:39:00;;;;;;;3.13;2.95;;;;;;;;;;4189858;28;20052;-56
2023/03/14 07:41:20;;;;;;;3.40;3.20;;;;;;;;;;4189436;28;20044;-56
2023/03/14 07:43:40;;;;;;;4.85;3.28;;;;;;;;;;4193476;28;20377;-57
2023/03/14 07:46:01;;;;;;;5.22;3.47;;;;;;;;;;4189726;28;20047;-56
2023/03/14 07:48:21;;;;;;;3.38;3.20;;;;;;;;;;4195050;28;20410;-57
2023/03/14 07:50:42;;;;;;;5.75;3.58;;;;;;;;;;4191730;28;20159;-56
2023/03/14 07:53:02;;;;;;;3.20;2.90;;;;;;;;;;4189064;28;20051;-56
2023/03/14 07:55:22;;;;;;;4.38;4.15;;;;;;;;;;4188980;28;20362;-57
2023/03/14 07:57:42;;;;;;;3.40;3.03;;;;;;;;;;4188810;28;20131;-57
2023/03/14 08:00:05;;;;;;;3.50;3.17;;;;;;;;;;4188849;28;20082;-57
2023/03/14 08:02:25;;;;;;;3.63;3.38;;;;;;;;;;4189480;28;20047;-56
2023/03/14 08:04:45;;;;;;;3.33;3.17;;;;;;;;;;4189406;28;20095;-56
2023/03/14 08:07:05;;;;;;;4.45;4.25;;;;;;;;;;4189483;28;20051;-56
2023/03/14 08:09:25;;;;;;;3.65;3.55;;;;;;;;;;4189369;28;20056;-57
2023/03/14 08:11:46;;;;;;;3.22;2.95;;;;;;;;;;4189320;28;20075;-57
2023/03/14 08:14:06;;;;;;;5.63;3.42;;;;;;;;;;4189430;28;20366;-57
2023/03/14 08:16:26;;;;;;;3.80;3.17;;;;;;;;;;4188753;28;20051;-57
2023/03/14 08:18:46;;;;;;;4.03;3.83;;;;;;;;;;4188479;28;20040;-56
2023/03/14 08:21:06;;;;;;;6.65;3.55;;;;;;;;;;4189292;28;20359;-56
2023/03/14 08:23:27;;;;;;;7.00;4.78;;;;;;;;;;4188199;28;20078;-56
2023/03/14 08:25:49;;;;;;;5.10;3.05;;;;;;;;;;4188051;28;20108;-56
2023/03/14 08:28:09;;;;;;;5.05;3.50;;;;;;;;;;4201324;28;20046;-56
2023/03/14 08:30:29;;;;;;;3.47;2.80;;;;;;;;;;4188903;28;20051;-57
2023/03/14 08:32:50;;;;;;;3.53;3.30;;;;;;;;;;4188145;28;20576;-57
2023/03/14 08:35:11;;;;;;;5.40;3.90;;;;;;;;;;4188018;28;20063;-57
2023/03/14 08:37:32;;;;;;;6.07;3.55;;;;;;;;;;4188372;28;20382;-58
2023/03/14 08:39:52;;;;;;;4.95;3.85;;;;;;;;;;4188548;28;20389;-59
2023/03/14 08:42:13;;;;;;;14.57;8.07;;;;;;;;;;4187923;28;20060;-59
2023/03/14 08:44:33;;;;;;;14.82;10.65;;;;;;;;;;4188638;28;20075;-59
2023/03/14 08:46:53;;;;;;;8.20;7.40;;;;;;;;;;4189068;28;20078;-58
2023/03/14 08:49:14;;;;;;;13.32;7.03;;;;;;;;;;4186929;28;20116;-58
2023/03/14 08:51:34;;;;;;;11.70;6.93;;;;;;;;;;4188680;28;20232;-59
2023/03/14 08:53:54;;;;;;;6.50;5.88;;;;;;;;;;4189039;28;20228;-59
2023/03/14 08:56:15;;;;;;;7.00;6.28;;;;;;;;;;4188939;28;20366;-59
2023/03/14 08:58:37;;;;;;;4.78;4.38;;;;;;;;;;4189269;28;20083;-59
2023/03/14 09:00:57;;;;;;;7.37;6.67;;;;;;;;;;4190689;28;20059;-59
2023/03/14 09:03:18;;;;;;;10.32;7.50;;;;;;;;;;4190546;28;20052;-58
2023/03/14 09:05:38;;;;;;;5.65;5.15;;;;;;;;;;4191320;28;20107;-58
2023/03/14 09:07:58;;;;;;;7.05;4.93;;;;;;;;;;4191818;28;20051;-59
2023/03/14 09:10:18;;;;;;;4.90;4.22;;;;;;;;;;4191823;28;20056;-58
2023/03/14 09:12:39;;;;;;;5.40;5.00;;;;;;;;;;4191460;28;20160;-58
2023/03/14 09:14:59;;;;;;;10.02;5.30;;;;;;;;;;4191660;28;20274;-58
2023/03/14 09:17:19;;;;;;;5.63;3.75;;;;;;;;;;4191708;28;20075;-58
2023/03/14 09:19:39;;;;;;;5.97;5.53;;;;;;;;;;4191563;28;20052;-58
2023/03/14 09:22:00;;;;;;;9.65;5.00;;;;;;;;;;4191469;28;20048;-58
2023/03/14 09:24:20;;;;;;;9.00;6.28;;;;;;;;;;4190840;28;20044;-58
2023/03/14 09:26:40;;;;;;;9.00;5.32;;;;;;;;;;4190545;28;20083;-58
2023/03/14 09:29:00;;;;;;;6.50;5.90;;;;;;;;;;4191458;28;20036;-58
2023/03/14 09:31:21;;;;;;;9.82;8.95;;;;;;;;;;4190918;28;20052;-59
2023/03/14 09:33:41;;;;;;;10.32;9.48;;;;;;;;;;4190081;28;20068;-58
2023/03/14 09:36:02;;;;;;;7.30;6.63;;;;;;;;;;4191326;28;20080;-58
2023/03/14 09:38:23;;;;;;;6.38;5.93;;;;;;;;;;4191434;28;20040;-58
2023/03/14 09:40:43;;;;;;;5.43;4.85;;;;;;;;;;4190560;28;20056;-59
2023/03/14 09:43:04;;;;;;;4.65;4.30;;;;;;;;;;4191199;28;20295;-58
2023/03/14 09:45:26;;;;;;;5.63;5.05;;;;;;;;;;4189691;28;20055;-58
2023/03/14 09:47:47;;;;;;;4.97;4.60;;;;;;;;;;4194526;28;20055;-58
2023/03/14 09:50:19;;;;;;;4.50;4.10;;;;;;;;;;4191034;28;20109;-58
2023/03/14 09:52:41;;;;;;;4.80;3.83;;;;;;;;;;4204126;28;20078;-58
2023/03/14 09:55:06;;;;;;;5.43;5.07;;;;;;;;;;4190944;28;20100;-58
2023/03/14 09:57:27;;;;;;;6.40;4.78;;;;;;;;;;4190288;28;20090;-58
2023/03/14 09:59:49;;;;;;;6.70;4.85;;;;;;;;;;4188611;28;20048;-58
2023/03/14 10:02:32;;;;;;;5.60;5.10;;;;;;;;;;4191134;28;20059;-58
2023/03/14 10:04:53;;;;;;;;;;;;;;;;;;4191411;28;20083;-58
2023/03/14 10:07:15;;;;;;;11.00;5.65;;;;;;;;;;4190895;28;19976;-58
2023/03/14 10:09:35;;;;;;;5.87;3.67;;;;;;;;;;4203856;28;20053;-58
2023/03/14 10:11:57;;;;;;;5.28;4.72;;;;;;;;;;4190572;28;20114;-58
2023/03/14 10:14:28;;;;;;;5.60;5.18;;;;;;;;;;4189979;28;20394;-58
2023/03/14 10:16:49;;;;;;;9.45;3.85;;;;;;;;;;4189905;28;20223;-58
2023/03/14 10:19:12;;;;;;;6.05;4.68;;;;;;;;;;4188801;28;20240;-58
2023/03/14 10:21:36;;;;;;;4.28;4.03;;;;;;;;;;4190433;28;20055;-58
2023/03/14 10:24:08;;;;;;;6.53;3.72;;;;;;;;;;4189826;28;20119;-58
2023/03/14 10:26:29;;;;;;;4.10;3.33;;;;;;;;;;4190338;28;20048;-58
2023/03/14 10:28:53;;;;;;;7.70;4.35;;;;;;;;;;4189138;28;20083;-58
2023/03/14 10:31:13;;;;;;;7.68;4.80;;;;;;;;;;4190218;28;20044;-58
2023/03/14 10:33:35;;;;;;;4.60;4.30;;;;;;;;;;4190598;28;20143;-58
2023/03/14 10:36:15;;;;;;;7.47;5.45;;;;;;;;;;4190799;28;20099;-58
2023/03/14 10:38:37;;;;;;;5.40;5.10;;;;;;;;;;4190260;28;20398;-58
2023/03/14 10:40:59;;;;;;;5.72;5.30;;;;;;;;;;4190191;28;20087;-58
2023/03/14 10:43:21;;;;;;;7.00;5.18;;;;;;;;;;4190201;28;20044;-58
2023/03/14 10:45:43;;;;;;;9.93;5.30;;;;;;;;;;4190560;28;20064;-58
2023/03/14 10:48:16;;;;;;;5.97;4.45;;;;;;;;;;4190246;28;20087;-58
2023/03/14 10:50:36;;;;;;;;;;;;;;;;;;4189971;28;20071;-58
2023/03/14 10:52:57;;;;;;;5.18;4.47;;;;;;;;;;4189609;28;20012;-57
2023/03/14 10:55:25;;;;;;;9.48;4.35;;;;;;;;;;4189982;28;20091;-58
2023/03/14 10:57:45;;;;;;;;;;;;;;;;;;4190676;28;20043;-58
2023/03/14 11:00:08;;;;;;;10.75;5.55;;;;;;;;;;4189889;28;19923;-59
2023/03/14 11:02:32;;;;;;;10.15;5.88;;;;;;;;;;4189940;28;20275;-58
2023/03/14 11:04:52;;;;;;;11.07;5.72;;;;;;;;;;4190240;28;20082;-58
2023/03/14 11:07:19;;;;;;;6.55;5.53;;;;;;;;;;4189934;28;20104;-58
2023/03/14 11:09:47;;;;;;;5.57;5.15;;;;;;;;;;4190224;28;20047;-58
2023/03/14 11:12:26;;;;;;;6.68;5.95;;;;;;;;;;4190031;28;20110;-59
2023/03/14 11:14:49;;;;;;;4.78;4.47;;;;;;;;;;4190124;28;20390;-58
2023/03/14 11:17:09;;;;;;;;;;;;;;;;;;4189240;28;20370;-59
2023/03/14 11:19:38;;;;;;;4.10;3.75;;;;;;;;;;4190167;28;19923;-58
2023/03/14 11:22:05;;;;;;;5.18;4.80;;;;;;;;;;4189237;28;20365;-58
2023/03/14 11:24:31;;;;;;;4.95;4.63;;;;;;;;;;4189101;28;20396;-59
2023/03/14 11:27:01;;;;;;;4.15;3.72;;;;;;;;;;4188979;28;20039;-59
2023/03/14 11:29:24;;;;;;;6.85;4.45;;;;;;;;;;4189679;28;20080;-59
2023/03/14 11:31:45;;;;;;;3.58;3.38;;;;;;;;;;4189855;28;20044;-59
2023/03/14 11:34:08;;;;;;;7.28;4.85;;;;;;;;;;4189714;28;20289;-59
2023/03/14 11:36:32;;;;;;;8.38;7.57;;;;;;;;;;4188981;28;20394;-59
2023/03/14 11:38:56;;;;;;;6.15;5.70;;;;;;;;;;4189887;28;20043;-59
2023/03/14 11:41:21;;;;;;;5.18;4.88;;;;;;;;;;4188827;28;20051;-59
2023/03/14 11:43:42;;;;;;;4.95;4.45;;;;;;;;;;4188345;28;20044;-59
2023/03/14 11:46:09;;;;;;;8.27;4.95;;;;;;;;;;4189575;28;20082;-59
2023/03/14 11:48:36;;;;;;;7.38;5.95;;;;;;;;;;4189204;28;20171;-59
2023/03/14 11:50:58;;;;;;;9.75;6.82;;;;;;;;;;4188751;28;20052;-60
2023/03/14 11:53:24;;;;;;;5.82;5.30;;;;;;;;;;4188735;28;20374;-59
2023/03/14 11:55:45;;;;;;;5.43;5.10;;;;;;;;;;4188220;28;20048;-59
2023/03/14 11:58:24;;;;;;;8.98;5.60;;;;;;;;;;4189031;28;20331;-60
2023/03/14 12:00:45;;;;;;;5.30;5.10;;;;;;;;;;4189545;28;20052;-60
2023/03/14 12:03:14;;;;;;;5.88;5.63;;;;;;;;;;4188463;28;20087;-60
2023/03/14 12:05:34;;;;;;;6.07;5.63;;;;;;;;;;4188610;28;20052;-60
2023/03/14 12:08:09;;;;;;;6.60;6.10;;;;;;;;;;4188274;28;20087;-60
2023/03/14 12:10:30;;;;;;;6.20;5.90;;;;;;;;;;4189453;28;20103;-59
2023/03/14 12:12:53;;;;;;;6.05;5.70;;;;;;;;;;4189003;28;20063;-59
2023/03/14 12:15:20;;;;;;;6.07;5.88;;;;;;;;;;4189390;28;20044;-60
2023/03/14 12:17:46;;;;;;;5.68;5.47;;;;;;;;;;4189422;28;20113;-60
2023/03/14 12:20:15;;;;;;;9.15;6.65;;;;;;;;;;4189158;28;20068;-60
2023/03/14 12:22:42;;;;;;;6.82;6.63;;;;;;;;;;4189166;28;20095;-60
2023/03/14 12:25:05;;;;;;;5.05;4.85;;;;;;;;;;4189183;28;20043;-60
2023/03/14 12:27:44;;;;;;;5.25;4.95;;;;;;;;;;4188868;28;20044;-60
2023/03/14 12:30:10;;;;;;;7.70;7.18;;;;;;;;;;4188007;28;20091;-59
2023/03/14 12:32:32;;;;;;;7.90;7.60;;;;;;;;;;4188917;28;20382;-60
2023/03/14 12:34:52;;;;;;;7.45;6.95;;;;;;;;;;4188235;28;20409;-59
2023/03/14 12:37:22;;;;;;;8.25;7.80;;;;;;;;;;4188200;28;20275;-59
2023/03/14 12:39:43;;;;;;;7.00;6.65;;;;;;;;;;4187761;28;20155;-60
2023/03/14 12:42:16;;;;;;;9.80;8.88;;;;;;;;;;4186664;28;20095;-59
2023/03/14 12:44:40;;;;;;;9.85;8.93;;;;;;;;;;4187200;28;20064;-60
2023/03/14 12:47:15;;;;;;;7.22;6.72;;;;;;;;;;4189014;28;20083;-59
2023/03/14 12:49:38;;;;;;;7.63;7.22;;;;;;;;;;4189071;28;20044;-59
2023/03/14 12:52:02;;;;;;;6.28;6.07;;;;;;;;;;4189092;28;20044;-60
2023/03/14 12:54:35;;;;;;;5.30;5.20;;;;;;;;;;4187510;28;20047;-59
2023/03/14 12:56:55;;;;;;;;;;;;;;;;;;4188551;28;20051;-61
2023/03/14 12:59:18;;;;;;;6.32;5.93;;;;;;;;;;4188963;28;20218;-60
2023/03/14 13:01:46;;;;;;;5.82;5.43;;;;;;;;;;4188957;28;20095;-60
2023/03/14 13:04:11;;;;;;;4.25;3.95;;;;;;;;;;4188382;28;20056;-60
2023/03/14 13:07:01;;;;;;;4.40;4.30;;;;;;;;;;4188719;28;20035;-60
2023/03/14 13:09:33;;;;;;;4.55;4.35;;;;;;;;;;4150878;28;20072;-59
2023/03/14 13:11:57;;;;;;;3.10;2.97;;;;;;;;;;4170795;28;20144;-59
2023/03/14 13:14:17;;;;;;;1.98;1.92;;;;;;;;;;4170826;28;20451;-59
2023/03/14 13:16:37;;;;;;;3.08;3.00;;;;;;;;;;4170819;28;20236;-59
2023/03/14 13:19:03;;;;;;;3.67;3.58;;;;;;;;;;4170354;28;20060;-59
2023/03/14 13:21:25;;;;;;;3.45;3.38;;;;;;;;;;4170622;28;20072;-59
2023/03/14 13:24:02;;;;;;;4.93;4.53;;;;;;;;;;4169151;28;20079;-60
2023/03/14 13:26:23;;;;;;;5.13;4.88;;;;;;;;;;4170733;28;20073;-59
2023/03/14 13:28:44;;;;;;;3.78;3.65;;;;;;;;;;4169246;28;20052;-59
2023/03/14 13:31:06;;;;;;;4.55;4.28;;;;;;;;;;4169470;28;20072;-58
2023/03/14 13:33:26;;;;;;;8.50;7.72;;;;;;;;;;4170598;28;20157;-58
2023/03/14 13:35:47;;;;;;;5.85;5.57;;;;;;;;;;4170428;28;20083;-58
2023/03/14 13:38:17;;;;;;;3.33;3.13;;;;;;;;;;4170444;28;20055;-58
2023/03/14 13:40:37;;;;;;;2.72;2.53;;;;;;;;;;4170457;28;20047;-57
2023/03/14 13:43:06;;;;;;;1.30;1.30;;;;;;;;;;4170354;28;20125;-58
2023/03/14 13:45:26;;;;;;;3.33;3.10;;;;;;;;;;4176786;28;20059;-58
2023/03/14 13:47:50;;;;;;;3.72;3.58;;;;;;;;;;4191204;28;20274;-58
2023/03/14 13:50:18;;;;;;;2.50;2.30;;;;;;;;;;4190552;28;20052;-58
2023/03/14 13:52:38;;;;;;;1.65;1.45;;;;;;;;;;4191081;28;20239;-58
2023/03/14 13:55:00;;;;;;;2.63;1.73;;;;;;;;;;4190745;28;20298;-58
2023/03/14 13:57:21;;;;;;;4.03;2.20;;;;;;;;;;4190155;28;20044;-58
2023/03/14 13:59:41;;;;;;;1.80;1.70;;;;;;;;;;4191115;28;20078;-58
2023/03/14 14:02:10;;;;;;;2.05;1.95;;;;;;;;;;4191008;28;20355;-58
2023/03/14 14:04:33;;;;;;;3.70;2.20;;;;;;;;;;4190761;28;20048;-58
2023/03/14 14:06:55;;;;;;;2.70;1.23;;;;;;;;;;4190889;28;20047;-57
2023/03/14 14:09:18;;;;;;;1.58;1.48;;;;;;;;;;4190977;28;20056;-58
2023/03/14 14:11:43;;;;;;;2.20;2.00;;;;;;;;;;4188735;28;20366;-57
2023/03/14 14:14:18;;;;;;;3.53;2.03;;;;;;;;;;4189743;28;20044;-58